sensor_id;sensor_type;location;lat;lon;timestamp;P1;durP1;ratioP1;P2;durP2;ratioP2
66145;SDS011;52948;60.040;30.320;2022-09-25T00:01:26;3.03;;;1.23;;
66145;SDS011;52948;60.040;30.320;2022-09-25T00:06:28;1.35;;;1.10;;
66145;SDS011;52948;60.040;30.320;2022-09-25T00:11:31;1.65;;;1.20;;
66145;SDS011;52948;60.040;30.320;2022-09-25T00:16:38;1.52;;;0.85;;
66145;SDS011;52948;60.040;30.320;2022-09-25T00:21:40;1.58;;;1.00;;
66145;SDS011;52948;60.040;30.320;2022-09-25T00:26:43;2.45;;;1.10;;
66145;SDS011;52948;60.040;30.320;2022-09-25T00:31:49;2.42;;;1.10;;
66145;SDS011;52948;60.040;30.320;2022-09-25T00:36:51;1.50;;;0.90;;
66145;SDS011;52948;60.040;30.320;2022-09-25T00:41:54;1.23;;;0.88;;
66145;SDS011;52948;60.040;30.320;2022-09-25T00:46:56;2.00;;;1.05;;
66145;SDS011;52948;60.040;30.320;2022-09-25T00:52:00;1.27;;;0.90;;
66145;SDS011;52948;60.040;30.320;2022-09-25T00:57:14;1.52;;;0.88;;
66145;SDS011;52948;60.040;30.320;2022-09-25T01:02:51;1.17;;;0.90;;
66145;SDS011;52948;60.040;30.320;2022-09-25T01:07:54;1.95;;;1.08;;
66145;SDS011;52948;60.040;30.320;2022-09-25T01:12:58;1.50;;;0.90;;
66145;SDS011;52948;60.040;30.320;2022-09-25T01:18:04;1.55;;;0.90;;
66145;SDS011;52948;60.040;30.320;2022-09-25T01:33:44;2.15;;;0.98;;
66145;SDS011;52948;60.040;30.320;2022-09-25T01:39:14;1.95;;;0.90;;
66145;SDS011;52948;60.040;30.320;2022-09-25T01:44:37;1.45;;;1.00;;
66145;SDS011;52948;60.040;30.320;2022-09-25T01:49:49;1.38;;;0.90;;
66145;SDS011;52948;60.040;30.320;2022-09-25T01:54:55;1.98;;;1.17;;
66145;SDS011;52948;60.040;30.320;2022-09-25T02:00:16;1.63;;;1.17;;
66145;SDS011;52948;60.040;30.320;2022-09-25T02:10:29;2.25;;;1.30;;
66145;SDS011;52948;60.040;30.320;2022-09-25T02:20:52;1.58;;;0.88;;
66145;SDS011;52948;60.040;30.320;2022-09-25T02:26:07;1.52;;;0.90;;
66145;SDS011;52948;60.040;30.320;2022-09-25T02:31:12;1.55;;;1.00;;
66145;SDS011;52948;60.040;30.320;2022-09-25T02:36:18;2.45;;;0.95;;
66145;SDS011;52948;60.040;30.320;2022-09-25T02:46:46;1.88;;;1.00;;
66145;SDS011;52948;60.040;30.320;2022-09-25T02:52:03;1.90;;;1.10;;
66145;SDS011;52948;60.040;30.320;2022-09-25T03:02:54;2.55;;;1.25;;
66145;SDS011;52948;60.040;30.320;2022-09-25T03:08:00;2.72;;;1.27;;
66145;SDS011;52948;60.040;30.320;2022-09-25T03:13:22;2.00;;;0.88;;
66145;SDS011;52948;60.040;30.320;2022-09-25T03:18:27;1.63;;;1.23;;
66145;SDS011;52948;60.040;30.320;2022-09-25T03:23:30;1.70;;;0.85;;
66145;SDS011;52948;60.040;30.320;2022-09-25T03:28:33;1.85;;;0.90;;
66145;SDS011;52948;60.040;30.320;2022-09-25T03:33:39;1.67;;;0.93;;
66145;SDS011;52948;60.040;30.320;2022-09-25T03:38:42;1.15;;;0.80;;
66145;SDS011;52948;60.040;30.320;2022-09-25T03:43:44;1.73;;;0.93;;
66145;SDS011;52948;60.040;30.320;2022-09-25T03:48:49;2.03;;;1.05;;
66145;SDS011;52948;60.040;30.320;2022-09-25T03:53:53;1.80;;;1.02;;
66145;SDS011;52948;60.040;30.320;2022-09-25T03:58:56;3.13;;;1.27;;
66145;SDS011;52948;60.040;30.320;2022-09-25T04:03:58;1.23;;;0.68;;
66145;SDS011;52948;60.040;30.320;2022-09-25T04:09:01;1.80;;;1.02;;
66145;SDS011;52948;60.040;30.320;2022-09-25T04:14:04;3.05;;;1.30;;
66145;SDS011;52948;60.040;30.320;2022-09-25T04:19:06;2.10;;;1.08;;
66145;SDS011;52948;60.040;30.320;2022-09-25T04:24:09;1.77;;;0.95;;
66145;SDS011;52948;60.040;30.320;2022-09-25T04:29:30;2.72;;;1.08;;
66145;SDS011;52948;60.040;30.320;2022-09-25T04:34:32;1.75;;;0.95;;
66145;SDS011;52948;60.040;30.320;2022-09-25T04:39:35;1.67;;;0.68;;
66145;SDS011;52948;60.040;30.320;2022-09-25T04:44:37;2.50;;;0.95;;
66145;SDS011;52948;60.040;30.320;2022-09-25T04:49:39;1.77;;;1.30;;
66145;SDS011;52948;60.040;30.320;2022-09-25T04:54:42;1.58;;;1.20;;
66145;SDS011;52948;60.040;30.320;2022-09-25T04:59:45;1.27;;;0.98;;
66145;SDS011;52948;60.040;30.320;2022-09-25T05:04:47;1.17;;;0.88;;
66145;SDS011;52948;60.040;30.320;2022-09-25T05:09:49;2.03;;;1.10;;
66145;SDS011;52948;60.040;30.320;2022-09-25T05:14:51;1.20;;;0.90;;
66145;SDS011;52948;60.040;30.320;2022-09-25T05:19:53;1.98;;;1.20;;
66145;SDS011;52948;60.040;30.320;2022-09-25T05:24:55;0.90;;;0.75;;
66145;SDS011;52948;60.040;30.320;2022-09-25T05:29:57;1.25;;;0.90;;
66145;SDS011;52948;60.040;30.320;2022-09-25T05:35:00;0.77;;;0.60;;
66145;SDS011;52948;60.040;30.320;2022-09-25T05:40:02;1.65;;;0.93;;
66145;SDS011;52948;60.040;30.320;2022-09-25T05:45:04;1.23;;;1.00;;
66145;SDS011;52948;60.040;30.320;2022-09-25T05:50:07;0.98;;;0.88;;
66145;SDS011;52948;60.040;30.320;2022-09-25T05:55:11;1.50;;;0.90;;
66145;SDS011;52948;60.040;30.320;2022-09-25T06:00:13;1.20;;;0.73;;
66145;SDS011;52948;60.040;30.320;2022-09-25T06:05:15;2.20;;;1.35;;
66145;SDS011;52948;60.040;30.320;2022-09-25T06:10:17;1.52;;;0.95;;
66145;SDS011;52948;60.040;30.320;2022-09-25T06:15:20;1.45;;;1.30;;
66145;SDS011;52948;60.040;30.320;2022-09-25T06:20:24;3.90;;;0.90;;
66145;SDS011;52948;60.040;30.320;2022-09-25T06:25:28;1.33;;;1.17;;
66145;SDS011;52948;60.040;30.320;2022-09-25T06:30:32;1.33;;;0.90;;
66145;SDS011;52948;60.040;30.320;2022-09-25T06:35:39;1.27;;;0.90;;
66145;SDS011;52948;60.040;30.320;2022-09-25T06:40:45;0.47;;;0.47;;
66145;SDS011;52948;60.040;30.320;2022-09-25T06:45:47;1.58;;;0.95;;
66145;SDS011;52948;60.040;30.320;2022-09-25T06:50:52;0.52;;;0.40;;
66145;SDS011;52948;60.040;30.320;2022-09-25T06:55:56;0.65;;;0.65;;
66145;SDS011;52948;60.040;30.320;2022-09-25T07:00:59;0.77;;;0.63;;
66145;SDS011;52948;60.040;30.320;2022-09-25T07:06:02;1.20;;;0.88;;
66145;SDS011;52948;60.040;30.320;2022-09-25T07:11:05;0.93;;;0.70;;
66145;SDS011;52948;60.040;30.320;2022-09-25T07:16:12;0.90;;;0.80;;
66145;SDS011;52948;60.040;30.320;2022-09-25T07:21:16;0.47;;;0.45;;
66145;SDS011;52948;60.040;30.320;2022-09-25T07:26:20;0.52;;;0.52;;
66145;SDS011;52948;60.040;30.320;2022-09-25T07:31:24;0.15;;;0.10;;
66145;SDS011;52948;60.040;30.320;2022-09-25T07:36:28;1.05;;;0.20;;
66145;SDS011;52948;60.040;30.320;2022-09-25T07:41:30;0.20;;;0.20;;
66145;SDS011;52948;60.040;30.320;2022-09-25T07:46:32;0.22;;;0.20;;
66145;SDS011;52948;60.040;30.320;2022-09-25T07:51:35;1.17;;;0.38;;
66145;SDS011;52948;60.040;30.320;2022-09-25T07:56:37;0.30;;;0.30;;
66145;SDS011;52948;60.040;30.320;2022-09-25T08:01:39;0.73;;;0.68;;
66145;SDS011;52948;60.040;30.320;2022-09-25T08:06:41;0.20;;;0.20;;
66145;SDS011;52948;60.040;30.320;2022-09-25T08:11:43;0.47;;;0.30;;
66145;SDS011;52948;60.040;30.320;2022-09-25T08:16:45;0.40;;;0.32;;
66145;SDS011;52948;60.040;30.320;2022-09-25T08:21:48;1.65;;;0.40;;
66145;SDS011;52948;60.040;30.320;2022-09-25T08:26:51;2.10;;;0.50;;
66145;SDS011;52948;60.040;30.320;2022-09-25T08:31:53;0.40;;;0.30;;
66145;SDS011;52948;60.040;30.320;2022-09-25T08:36:55;0.75;;;0.55;;
66145;SDS011;52948;60.040;30.320;2022-09-25T08:41:58;0.13;;;0.13;;
66145;SDS011;52948;60.040;30.320;2022-09-25T08:47:03;0.80;;;0.40;;
66145;SDS011;52948;60.040;30.320;2022-09-25T08:52:25;0.30;;;0.28;;
66145;SDS011;52948;60.040;30.320;2022-09-25T08:57:37;0.75;;;0.22;;
66145;SDS011;52948;60.040;30.320;2022-09-25T09:02:54;0.10;;;0.10;;
66145;SDS011;52948;60.040;30.320;2022-09-25T09:08:02;0.50;;;0.22;;
66145;SDS011;52948;60.040;30.320;2022-09-25T09:18:25;0.10;;;0.10;;
66145;SDS011;52948;60.040;30.320;2022-09-25T09:28:53;0.10;;;0.10;;
66145;SDS011;52948;60.040;30.320;2022-09-25T09:50:31;0.28;;;0.28;;
66145;SDS011;52948;60.040;30.320;2022-09-25T10:00:48;0.10;;;0.10;;
66145;SDS011;52948;60.040;30.320;2022-09-25T10:05:52;1.17;;;0.30;;
66145;SDS011;52948;60.040;30.320;2022-09-25T10:10:57;0.57;;;0.40;;
66145;SDS011;52948;60.040;30.320;2022-09-25T10:16:16;0.52;;;0.32;;
66145;SDS011;52948;60.040;30.320;2022-09-25T10:21:24;0.00;;;0.00;;
66145;SDS011;52948;60.040;30.320;2022-09-25T10:31:39;1.42;;;0.50;;
66145;SDS011;52948;60.040;30.320;2022-09-25T10:36:46;0.00;;;0.00;;
66145;SDS011;52948;60.040;30.320;2022-09-25T10:41:53;0.55;;;0.20;;
66145;SDS011;52948;60.040;30.320;2022-09-25T10:46:55;0.80;;;0.30;;
66145;SDS011;52948;60.040;30.320;2022-09-25T10:53:01;0.55;;;0.30;;
66145;SDS011;52948;60.040;30.320;2022-09-25T11:03:20;0.20;;;0.20;;
66145;SDS011;52948;60.040;30.320;2022-09-25T11:08:49;0.07;;;0.03;;
66145;SDS011;52948;60.040;30.320;2022-09-25T11:14:03;3.30;;;0.50;;
66145;SDS011;52948;60.040;30.320;2022-09-25T11:19:09;0.77;;;0.32;;
66145;SDS011;52948;60.040;30.320;2022-09-25T11:40:54;2.10;;;0.73;;
66145;SDS011;52948;60.040;30.320;2022-09-25T11:46:18;0.65;;;0.43;;
66145;SDS011;52948;60.040;30.320;2022-09-25T11:57:01;1.98;;;0.52;;
66145;SDS011;52948;60.040;30.320;2022-09-25T12:02:15;3.58;;;0.47;;
66145;SDS011;52948;60.040;30.320;2022-09-25T12:23:08;1.45;;;0.60;;
66145;SDS011;52948;60.040;30.320;2022-09-25T12:49:36;1.30;;;0.70;;
66145;SDS011;52948;60.040;30.320;2022-09-25T12:59:55;0.63;;;0.60;;
66145;SDS011;52948;60.040;30.320;2022-09-25T13:10:36;0.93;;;0.80;;
66145;SDS011;52948;60.040;30.320;2022-09-25T13:15:58;1.97;;;0.90;;
66145;SDS011;52948;60.040;30.320;2022-09-25T13:26:13;0.88;;;0.77;;
66145;SDS011;52948;60.040;30.320;2022-09-25T13:31:25;1.00;;;0.80;;
66145;SDS011;52948;60.040;30.320;2022-09-25T13:36:53;1.27;;;0.80;;
66145;SDS011;52948;60.040;30.320;2022-09-25T13:42:03;2.53;;;1.25;;
66145;SDS011;52948;60.040;30.320;2022-09-25T13:52:27;2.20;;;0.70;;
66145;SDS011;52948;60.040;30.320;2022-09-25T14:02:55;1.33;;;0.80;;
66145;SDS011;52948;60.040;30.320;2022-09-25T14:08:08;1.67;;;0.80;;
66145;SDS011;52948;60.040;30.320;2022-09-25T14:13:13;0.75;;;0.75;;
66145;SDS011;52948;60.040;30.320;2022-09-25T14:23:28;1.35;;;0.70;;
66145;SDS011;52948;60.040;30.320;2022-09-25T14:28:42;1.67;;;0.97;;
66145;SDS011;52948;60.040;30.320;2022-09-25T14:39:02;1.80;;;1.00;;
66145;SDS011;52948;60.040;30.320;2022-09-25T14:44:28;1.10;;;0.90;;
66145;SDS011;52948;60.040;30.320;2022-09-25T14:49:53;3.40;;;0.93;;
66145;SDS011;52948;60.040;30.320;2022-09-25T14:54:55;1.15;;;0.70;;
66145;SDS011;52948;60.040;30.320;2022-09-25T15:00:03;1.38;;;1.02;;
66145;SDS011;52948;60.040;30.320;2022-09-25T15:10:30;1.20;;;0.98;;
66145;SDS011;52948;60.040;30.320;2022-09-25T15:15:35;1.40;;;0.75;;
66145;SDS011;52948;60.040;30.320;2022-09-25T15:20:42;2.90;;;1.00;;
66145;SDS011;52948;60.040;30.320;2022-09-25T15:25:47;1.75;;;0.80;;
66145;SDS011;52948;60.040;30.320;2022-09-25T15:30:54;1.00;;;0.73;;
66145;SDS011;52948;60.040;30.320;2022-09-25T15:35:59;1.00;;;0.90;;
66145;SDS011;52948;60.040;30.320;2022-09-25T15:41:07;1.23;;;0.90;;
66145;SDS011;52948;60.040;30.320;2022-09-25T15:51:49;1.33;;;0.98;;
66145;SDS011;52948;60.040;30.320;2022-09-25T15:56:53;1.52;;;1.15;;
66145;SDS011;52948;60.040;30.320;2022-09-25T16:01:58;3.53;;;1.25;;
66145;SDS011;52948;60.040;30.320;2022-09-25T16:07:33;3.40;;;1.40;;
66145;SDS011;52948;60.040;30.320;2022-09-25T16:17:43;1.02;;;0.93;;
66145;SDS011;52948;60.040;30.320;2022-09-25T16:22:46;5.00;;;1.50;;
66145;SDS011;52948;60.040;30.320;2022-09-25T16:27:49;1.75;;;0.80;;
66145;SDS011;52948;60.040;30.320;2022-09-25T16:32:52;2.47;;;1.13;;
66145;SDS011;52948;60.040;30.320;2022-09-25T16:37:56;2.88;;;1.40;;
66145;SDS011;52948;60.040;30.320;2022-09-25T16:42:59;4.22;;;2.70;;
66145;SDS011;52948;60.040;30.320;2022-09-25T16:53:37;1.40;;;1.00;;
66145;SDS011;52948;60.040;30.320;2022-09-25T16:58:41;2.33;;;1.02;;
66145;SDS011;52948;60.040;30.320;2022-09-25T17:03:43;2.25;;;1.50;;
66145;SDS011;52948;60.040;30.320;2022-09-25T17:08:52;3.63;;;1.27;;
66145;SDS011;52948;60.040;30.320;2022-09-25T17:13:59;2.67;;;0.82;;
66145;SDS011;52948;60.040;30.320;2022-09-25T17:19:04;1.30;;;0.98;;
66145;SDS011;52948;60.040;30.320;2022-09-25T17:24:09;3.10;;;1.10;;
66145;SDS011;52948;60.040;30.320;2022-09-25T17:29:13;2.00;;;1.15;;
66145;SDS011;52948;60.040;30.320;2022-09-25T17:34:16;1.88;;;1.35;;
66145;SDS011;52948;60.040;30.320;2022-09-25T17:39:19;1.55;;;1.40;;
66145;SDS011;52948;60.040;30.320;2022-09-25T17:44:21;1.73;;;1.40;;
66145;SDS011;52948;60.040;30.320;2022-09-25T17:49:24;2.60;;;1.50;;
66145;SDS011;52948;60.040;30.320;2022-09-25T17:54:26;1.92;;;1.42;;
66145;SDS011;52948;60.040;30.320;2022-09-25T17:59:32;2.17;;;1.48;;
66145;SDS011;52948;60.040;30.320;2022-09-25T18:04:34;2.20;;;1.70;;
66145;SDS011;52948;60.040;30.320;2022-09-25T18:09:37;1.92;;;1.50;;
66145;SDS011;52948;60.040;30.320;2022-09-25T18:14:39;3.50;;;1.77;;
66145;SDS011;52948;60.040;30.320;2022-09-25T18:19:41;4.18;;;1.90;;
66145;SDS011;52948;60.040;30.320;2022-09-25T18:25:02;3.58;;;1.75;;
66145;SDS011;52948;60.040;30.320;2022-09-25T18:30:05;4.55;;;1.70;;
66145;SDS011;52948;60.040;30.320;2022-09-25T18:35:08;2.08;;;1.70;;
66145;SDS011;52948;60.040;30.320;2022-09-25T18:40:11;2.05;;;1.50;;
66145;SDS011;52948;60.040;30.320;2022-09-25T18:45:15;2.08;;;1.48;;
66145;SDS011;52948;60.040;30.320;2022-09-25T18:50:17;2.38;;;1.80;;
66145;SDS011;52948;60.040;30.320;2022-09-25T18:55:19;3.25;;;1.95;;
66145;SDS011;52948;60.040;30.320;2022-09-25T19:00:22;3.20;;;1.92;;
66145;SDS011;52948;60.040;30.320;2022-09-25T19:05:24;4.50;;;1.77;;
66145;SDS011;52948;60.040;30.320;2022-09-25T19:10:26;3.42;;;2.47;;
66145;SDS011;52948;60.040;30.320;2022-09-25T19:15:33;3.83;;;2.05;;
66145;SDS011;52948;60.040;30.320;2022-09-25T19:20:35;2.85;;;2.00;;
66145;SDS011;52948;60.040;30.320;2022-09-25T19:25:37;3.20;;;2.22;;
66145;SDS011;52948;60.040;30.320;2022-09-25T19:30:43;7.97;;;2.88;;
66145;SDS011;52948;60.040;30.320;2022-09-25T19:35:45;3.92;;;2.10;;
66145;SDS011;52948;60.040;30.320;2022-09-25T19:40:47;4.07;;;2.42;;
66145;SDS011;52948;60.040;30.320;2022-09-25T19:45:50;4.03;;;2.30;;
66145;SDS011;52948;60.040;30.320;2022-09-25T19:50:54;3.95;;;2.70;;
66145;SDS011;52948;60.040;30.320;2022-09-25T19:55:56;4.60;;;2.63;;
66145;SDS011;52948;60.040;30.320;2022-09-25T20:00:59;3.05;;;2.28;;
66145;SDS011;52948;60.040;30.320;2022-09-25T20:06:01;7.90;;;2.88;;
66145;SDS011;52948;60.040;30.320;2022-09-25T20:11:38;4.25;;;2.63;;
66145;SDS011;52948;60.040;30.320;2022-09-25T20:16:33;4.88;;;2.45;;
66145;SDS011;52948;60.040;30.320;2022-09-25T20:21:38;7.93;;;2.25;;
66145;SDS011;52948;60.040;30.320;2022-09-25T20:26:42;8.15;;;2.95;;
66145;SDS011;52948;60.040;30.320;2022-09-25T20:31:44;9.73;;;2.53;;
66145;SDS011;52948;60.040;30.320;2022-09-25T20:36:47;4.55;;;2.45;;
66145;SDS011;52948;60.040;30.320;2022-09-25T20:41:49;4.18;;;2.42;;
66145;SDS011;52948;60.040;30.320;2022-09-25T20:46:51;3.25;;;1.92;;
66145;SDS011;52948;60.040;30.320;2022-09-25T20:51:54;4.68;;;1.90;;
66145;SDS011;52948;60.040;30.320;2022-09-25T20:56:56;8.32;;;1.70;;
66145;SDS011;52948;60.040;30.320;2022-09-25T21:01:58;3.38;;;1.88;;
66145;SDS011;52948;60.040;30.320;2022-09-25T21:07:01;5.43;;;2.50;;
66145;SDS011;52948;60.040;30.320;2022-09-25T21:12:04;4.47;;;1.77;;
66145;SDS011;52948;60.040;30.320;2022-09-25T21:17:06;4.72;;;1.90;;
66145;SDS011;52948;60.040;30.320;2022-09-25T21:22:14;4.82;;;2.15;;
66145;SDS011;52948;60.040;30.320;2022-09-25T21:27:16;6.18;;;2.63;;
66145;SDS011;52948;60.040;30.320;2022-09-25T21:32:18;4.72;;;1.80;;
66145;SDS011;52948;60.040;30.320;2022-09-25T21:37:20;6.82;;;2.85;;
66145;SDS011;52948;60.040;30.320;2022-09-25T21:42:23;7.03;;;3.13;;
66145;SDS011;52948;60.040;30.320;2022-09-25T21:47:25;5.75;;;2.80;;
66145;SDS011;52948;60.040;30.320;2022-09-25T21:52:27;7.72;;;3.90;;
66145;SDS011;52948;60.040;30.320;2022-09-25T21:57:29;10.18;;;5.05;;
66145;SDS011;52948;60.040;30.320;2022-09-25T22:02:34;12.02;;;6.72;;
66145;SDS011;52948;60.040;30.320;2022-09-25T22:07:37;10.75;;;5.45;;
66145;SDS011;52948;60.040;30.320;2022-09-25T22:12:39;7.07;;;4.18;;
66145;SDS011;52948;60.040;30.320;2022-09-25T22:17:42;9.70;;;5.28;;
66145;SDS011;52948;60.040;30.320;2022-09-25T22:22:46;8.88;;;5.28;;
66145;SDS011;52948;60.040;30.320;2022-09-25T22:27:49;10.50;;;4.70;;
66145;SDS011;52948;60.040;30.320;2022-09-25T22:32:51;8.63;;;4.43;;
66145;SDS011;52948;60.040;30.320;2022-09-25T22:37:54;5.80;;;3.47;;
66145;SDS011;52948;60.040;30.320;2022-09-25T22:43:00;5.50;;;3.45;;
66145;SDS011;52948;60.040;30.320;2022-09-25T22:48:03;4.85;;;3.20;;
66145;SDS011;52948;60.040;30.320;2022-09-25T22:53:05;4.95;;;3.08;;
66145;SDS011;52948;60.040;30.320;2022-09-25T22:58:08;6.57;;;2.80;;
66145;SDS011;52948;60.040;30.320;2022-09-25T23:03:10;4.32;;;2.70;;
66145;SDS011;52948;60.040;30.320;2022-09-25T23:08:12;4.00;;;2.40;;
66145;SDS011;52948;60.040;30.320;2022-09-25T23:13:14;3.85;;;2.55;;
66145;SDS011;52948;60.040;30.320;2022-09-25T23:18:17;4.78;;;2.83;;
66145;SDS011;52948;60.040;30.320;2022-09-25T23:23:19;4.00;;;2.90;;
66145;SDS011;52948;60.040;30.320;2022-09-25T23:28:22;3.72;;;2.25;;
66145;SDS011;52948;60.040;30.320;2022-09-25T23:33:25;3.40;;;1.77;;
66145;SDS011;52948;60.040;30.320;2022-09-25T23:38:27;2.42;;;1.77;;
66145;SDS011;52948;60.040;30.320;2022-09-25T23:43:30;3.58;;;1.98;;
66145;SDS011;52948;60.040;30.320;2022-09-25T23:48:32;3.13;;;1.70;;
66145;SDS011;52948;60.040;30.320;2022-09-25T23:53:34;4.95;;;2.33;;
66145;SDS011;52948;60.040;30.320;2022-09-25T23:58:37;2.70;;;1.83;;
